createdAt,value
2022-10-19T00:01:42.375Z,2.57
2022-10-19T00:06:53.816Z,2.83
2022-10-19T00:12:05.762Z,2.30
2022-10-19T00:17:15.757Z,2.30
2022-10-19T00:22:27.971Z,2.57
2022-10-19T00:27:39.929Z,2.43
2022-10-19T00:32:49.993Z,2.60
2022-10-19T00:37:58.437Z,2.60
2022-10-19T00:43:10.060Z,2.60
2022-10-19T00:48:21.502Z,2.30
2022-10-19T00:53:32.723Z,2.70
2022-10-19T00:58:44.541Z,2.40
2022-10-19T01:03:56.051Z,2.50
2022-10-19T01:09:06.894Z,2.57
2022-10-19T01:14:19.351Z,2.40
2022-10-19T01:19:32.422Z,2.10
2022-10-19T01:24:45.075Z,2.17
2022-10-19T01:29:56.160Z,2.13
2022-10-19T01:35:08.170Z,2.63
2022-10-19T01:40:21.210Z,2.50
2022-10-19T01:45:32.690Z,2.27
2022-10-19T01:50:44.801Z,2.30
2022-10-19T01:55:56.481Z,2.33
2022-10-19T02:06:21.697Z,1.90
2022-10-19T02:11:35.828Z,2.20
2022-10-19T02:16:46.937Z,2.23
2022-10-19T02:21:58.417Z,2.47
2022-10-19T02:27:09.937Z,2.53
2022-10-19T02:32:20.737Z,2.30
2022-10-19T02:37:32.167Z,2.20
2022-10-19T02:42:43.804Z,2.43
2022-10-19T02:47:55.680Z,2.10
2022-10-19T02:53:07.958Z,2.40
2022-10-19T02:58:18.790Z,2.77
2022-10-19T03:03:28.600Z,2.50
2022-10-19T03:08:40.898Z,1.97
2022-10-19T03:13:51.213Z,2.63
2022-10-19T03:19:00.988Z,2.53
2022-10-19T03:24:12.634Z,2.63
2022-10-19T03:29:23.969Z,2.37
2022-10-19T03:34:33.808Z,2.07
2022-10-19T03:39:43.710Z,2.30
2022-10-19T03:44:54.878Z,2.07
2022-10-19T03:50:05.768Z,2.33
2022-10-19T03:55:16.203Z,2.20
2022-10-19T04:00:26.934Z,2.33
2022-10-19T04:05:39.623Z,1.80
2022-10-19T04:10:50.594Z,2.03
2022-10-19T04:16:01.068Z,2.30
2022-10-19T04:21:16.378Z,1.80
2022-10-19T04:26:26.937Z,2.30
2022-10-19T04:31:40.840Z,1.80
2022-10-19T04:36:51.563Z,1.90
2022-10-19T04:42:01.697Z,1.80
2022-10-19T04:47:12.377Z,2.00
2022-10-19T04:52:22.697Z,2.13
2022-10-19T04:57:34.753Z,1.97
2022-10-19T05:02:46.809Z,2.20
2022-10-19T05:07:56.848Z,2.00
2022-10-19T05:13:10.558Z,1.90
2022-10-19T05:18:20.397Z,1.73
2022-10-19T05:28:44.271Z,2.00
2022-10-19T05:33:57.034Z,2.00
2022-10-19T05:39:10.956Z,1.80
2022-10-19T05:44:22.119Z,1.80
2022-10-19T05:49:32.579Z,1.60
2022-10-19T05:54:42.578Z,1.90
2022-10-19T05:59:52.718Z,1.60
2022-10-19T06:05:03.097Z,1.63
2022-10-19T06:10:13.284Z,1.60
2022-10-19T06:15:25.624Z,1.60
2022-10-19T06:20:37.881Z,1.77
2022-10-19T06:25:48.188Z,1.70
2022-10-19T06:31:03.365Z,1.93
2022-10-19T06:36:15.236Z,1.80
2022-10-19T06:41:26.087Z,1.80
2022-10-19T06:46:36.454Z,1.80
2022-10-19T06:51:47.039Z,2.13
2022-10-19T06:56:59.323Z,1.67
2022-10-19T07:02:09.138Z,1.77
2022-10-19T07:07:20.038Z,2.13
2022-10-19T07:12:31.139Z,2.10
2022-10-19T07:17:42.345Z,2.20
2022-10-19T07:23:00.159Z,1.70
2022-10-19T07:28:12.218Z,1.90
2022-10-19T07:33:22.694Z,1.67
2022-10-19T07:38:34.085Z,2.20
2022-10-19T07:43:46.100Z,2.30
2022-10-19T07:48:57.137Z,1.80
2022-10-19T07:54:07.648Z,1.90
2022-10-19T07:59:18.426Z,1.67
2022-10-19T08:04:59.802Z,1.70
2022-10-19T08:09:57.803Z,1.83
2022-10-19T08:14:55.061Z,1.57
2022-10-19T08:20:07.173Z,2.23
2022-10-19T08:25:20.186Z,1.60
2022-10-19T08:30:30.837Z,1.80
2022-10-19T08:35:41.038Z,1.73
2022-10-19T08:40:51.519Z,1.40
2022-10-19T08:46:04.780Z,1.50
2022-10-19T08:51:16.281Z,2.17
2022-10-19T08:56:49.442Z,1.50
2022-10-19T09:01:39.859Z,1.53
2022-10-19T09:06:51.078Z,1.70
2022-10-19T09:12:03.877Z,1.83
2022-10-19T09:17:17.959Z,1.73
2022-10-19T09:22:32.761Z,1.50
2022-10-19T09:27:46.543Z,1.97
2022-10-19T09:32:57.639Z,1.60
2022-10-19T09:38:09.529Z,1.63
2022-10-19T09:43:21.624Z,2.17
2022-10-19T09:48:33.403Z,1.60
2022-10-19T09:53:45.458Z,1.50
2022-10-19T09:58:58.089Z,1.43
2022-10-19T10:04:11.063Z,1.30
2022-10-19T10:09:21.172Z,1.23
2022-10-19T10:14:34.218Z,1.50
2022-10-19T10:19:47.230Z,1.60
2022-10-19T10:25:01.360Z,1.53
2022-10-19T10:30:14.222Z,1.63
2022-10-19T10:35:26.443Z,1.93
2022-10-19T10:40:37.023Z,1.93
2022-10-19T10:45:49.032Z,2.10
2022-10-19T10:51:01.622Z,2.10
2022-10-19T10:56:16.031Z,1.80
2022-10-19T11:01:36.078Z,1.90
2022-10-19T11:06:50.683Z,1.70
2022-10-19T11:12:02.242Z,2.33
2022-10-19T11:17:14.298Z,2.00
2022-10-19T11:22:27.558Z,2.07
2022-10-19T11:27:38.211Z,2.23
2022-10-19T11:32:49.822Z,2.27
2022-10-19T11:38:19.514Z,1.50
2022-10-19T11:43:22.400Z,2.20
2022-10-19T11:48:31.838Z,2.07
2022-10-19T11:53:43.930Z,1.63
2022-10-19T11:58:57.872Z,2.67
2022-10-19T12:04:15.562Z,2.20
2022-10-19T12:09:28.978Z,2.03
2022-10-19T12:14:46.978Z,1.80
2022-10-19T12:19:58.318Z,1.77
2022-10-19T12:25:14.064Z,1.70
2022-10-19T12:30:28.334Z,1.50
2022-10-19T12:35:44.711Z,1.80
2022-10-19T12:40:57.029Z,1.63
2022-10-19T12:46:08.489Z,2.00
2022-10-19T12:51:20.718Z,1.67
2022-10-19T12:56:29.783Z,1.60
2022-10-19T13:01:41.904Z,1.57
2022-10-19T13:07:01.099Z,1.90
2022-10-19T13:12:21.405Z,1.90
2022-10-19T13:17:35.207Z,1.77
2022-10-19T13:22:49.558Z,1.43
2022-10-19T13:28:01.061Z,1.77
2022-10-19T13:33:15.229Z,1.47
2022-10-19T13:38:29.046Z,1.83
2022-10-19T13:43:41.720Z,1.70
2022-10-19T13:48:57.024Z,1.40
2022-10-19T13:54:10.433Z,1.50
2022-10-19T13:59:23.806Z,1.50
2022-10-19T14:04:38.119Z,1.60
2022-10-19T14:09:53.338Z,1.40
2022-10-19T14:15:12.666Z,1.30
2022-10-19T14:20:27.300Z,1.50
2022-10-19T14:25:38.737Z,1.53
2022-10-19T14:30:50.365Z,1.30
2022-10-19T14:36:01.339Z,1.93
2022-10-19T14:41:17.598Z,1.30
2022-10-19T14:46:32.070Z,1.40
2022-10-19T14:51:46.404Z,1.30
2022-10-19T14:56:58.377Z,1.37
2022-10-19T15:02:14.217Z,1.30
2022-10-19T15:07:26.900Z,1.50
2022-10-19T15:12:38.580Z,1.70
2022-10-19T15:17:50.312Z,1.70
2022-10-19T15:23:01.899Z,1.40
2022-10-19T15:28:19.952Z,1.40
2022-10-19T15:33:31.221Z,1.80
2022-10-19T15:38:42.878Z,1.50
2022-10-19T15:44:00.909Z,1.60
2022-10-19T15:49:16.767Z,3.73
2022-10-19T15:54:27.983Z,2.83
2022-10-19T15:59:41.737Z,5.40
2022-10-19T16:04:54.070Z,1.77
2022-10-19T16:10:05.882Z,1.40
2022-10-19T16:15:18.838Z,1.33
2022-10-19T16:20:30.919Z,1.10
2022-10-19T16:25:40.313Z,1.40
2022-10-19T16:30:51.712Z,1.70
2022-10-19T16:36:03.171Z,1.30
2022-10-19T16:41:15.459Z,1.47
2022-10-19T16:46:33.037Z,1.50
2022-10-19T16:51:45.484Z,1.70
2022-10-19T16:56:56.473Z,1.17
2022-10-19T17:02:07.779Z,1.30
2022-10-19T17:07:20.338Z,1.70
2022-10-19T17:12:30.462Z,1.43
2022-10-19T17:17:40.438Z,1.40
2022-10-19T17:22:51.960Z,1.10
2022-10-19T17:28:01.521Z,1.10
2022-10-19T17:33:11.680Z,1.30
2022-10-19T17:38:21.859Z,1.10
2022-10-19T17:43:33.463Z,1.30
2022-10-19T17:48:48.956Z,1.07
2022-10-19T17:54:03.802Z,1.23
2022-10-19T17:59:30.188Z,1.20
2022-10-19T18:04:30.888Z,1.00
2022-10-19T18:09:41.665Z,1.40
2022-10-19T18:14:52.179Z,1.00
2022-10-19T18:20:03.031Z,1.17
2022-10-19T18:25:16.239Z,1.23
2022-10-19T18:30:27.782Z,1.10
2022-10-19T18:35:38.622Z,1.20
2022-10-19T18:40:49.363Z,1.10
2022-10-19T18:46:00.516Z,1.20
2022-10-19T18:51:10.620Z,1.37
2022-10-19T18:56:21.717Z,1.20
2022-10-19T19:01:32.258Z,1.30
2022-10-19T19:06:43.977Z,1.20
2022-10-19T19:11:55.103Z,1.10
2022-10-19T19:17:07.740Z,1.20
2022-10-19T19:22:19.317Z,1.30
2022-10-19T19:27:31.772Z,1.20
2022-10-19T19:32:44.097Z,1.30
2022-10-19T19:37:54.998Z,1.37
2022-10-19T19:43:05.750Z,1.20
2022-10-19T19:48:16.181Z,1.00
2022-10-19T19:53:26.700Z,1.30
2022-10-19T19:58:38.829Z,1.10
2022-10-19T20:03:49.826Z,1.30
2022-10-19T20:09:00.376Z,1.50
2022-10-19T20:14:10.582Z,1.40
2022-10-19T20:19:21.049Z,1.23
2022-10-19T20:24:33.045Z,1.40
2022-10-19T20:29:43.460Z,1.20
2022-10-19T20:34:58.761Z,1.10
2022-10-19T20:40:13.190Z,1.43
2022-10-19T20:45:23.544Z,1.13
2022-10-19T20:50:34.644Z,1.53
2022-10-19T20:55:47.028Z,1.20
2022-10-19T21:00:57.937Z,1.37
2022-10-19T21:06:12.467Z,1.27
2022-10-19T21:11:24.270Z,1.20
2022-10-19T21:16:38.832Z,1.40
2022-10-19T21:21:52.552Z,1.27
2022-10-19T21:27:05.760Z,1.50
2022-10-19T21:32:16.214Z,1.40
2022-10-19T21:37:27.768Z,1.20
2022-10-19T21:42:37.728Z,1.30
2022-10-19T21:47:46.930Z,1.50
2022-10-19T21:52:58.315Z,1.47
2022-10-19T21:58:08.208Z,1.37
2022-10-19T22:03:20.231Z,1.50
2022-10-19T22:08:30.647Z,1.40
2022-10-19T22:13:43.732Z,1.40
2022-10-19T22:18:59.530Z,1.50
2022-10-19T22:24:13.843Z,1.40
2022-10-19T22:29:26.648Z,1.40
2022-10-19T22:34:37.129Z,1.33
2022-10-19T22:39:48.690Z,1.57
2022-10-19T22:44:59.795Z,1.10
2022-10-19T22:50:12.027Z,1.50
2022-10-19T22:55:22.665Z,1.20
2022-10-19T23:00:39.942Z,1.63
2022-10-19T23:05:50.511Z,1.10
2022-10-19T23:11:02.330Z,1.60
2022-10-19T23:16:13.233Z,1.33
2022-10-19T23:21:23.433Z,1.30
2022-10-19T23:26:33.359Z,1.23
2022-10-19T23:31:42.730Z,1.30
2022-10-19T23:36:53.909Z,1.30
2022-10-19T23:42:04.392Z,1.40
2022-10-19T23:47:12.829Z,1.23
2022-10-19T23:52:22.928Z,1.13
2022-10-19T23:57:34.005Z,1.20
